aviador You're here:

PAPH Decoded Metar

PORT HEIDEN in AK, USA
Report Time2017-10-20 14:56:00
UTC Time2017-10-20 15:51:51
Flight Rules vfr VFR
Wind070° at 05 kt
W.Decomp.*RWY 05: 5.0 kt HW 0.3 kt RCW
RWY 13: 1.2 kt HW 4.9 kt LCW
W.Rank070° ranks 25
Current wind is below 070° avg. (8.0)
Visibility9999 m
Phenomena:N/A
Clouds:N/A
Expected CloudBase > 400 ft AGL from Temp-Dew spread
CeilingNone
Temp-4°C (ISA -19)
Dew Point-5°C (93% RH)
AAT-8.4°C
QNH992 hPa
Density Alt-1,440 ft
Elevation95 ft
Report Wrong Elevation
Raw Report
PAPH 201456Z AUTO 07005KT 10SM CLR M04/M05 A2929 RMK AO2 SLP921
60000 T10441050 56022 FZRANO=

Extra information for PAPH:More info

Metar Taf Metar & Taf Last 4 Metars F.Rules Stats Wind Profile Meteogram Temp Stats Airport Information Weather charts Add Link Nearby VenuesMetar ALERT Operation Metar Decoded Social comments

AIRNAV info for PAPH